createdAt,value
2018-05-06T00:00:28.795Z,10.37
2018-05-06T00:01:27.590Z,10.35
2018-05-06T00:02:27.272Z,10.35
2018-05-06T00:03:27.153Z,10.38
2018-05-06T00:04:47.397Z,10.37
2018-05-06T00:06:08.861Z,10.37
2018-05-06T00:07:09.027Z,10.35
2018-05-06T00:08:08.917Z,10.35
2018-05-06T00:09:30.600Z,10.34
2018-05-06T00:10:30.173Z,10.33
2018-05-06T00:11:30.066Z,10.33
2018-05-06T00:12:29.769Z,10.31
2018-05-06T00:13:30.827Z,10.31
2018-05-06T00:14:30.574Z,10.28
2018-05-06T00:15:30.678Z,10.30
2018-05-06T00:16:30.482Z,10.30
2018-05-06T00:17:30.344Z,10.33
2018-05-06T00:18:30.504Z,10.34
2018-05-06T00:19:30.223Z,10.34
2018-05-06T00:20:30.309Z,10.34
2018-05-06T00:21:30.304Z,10.35
2018-05-06T00:22:30.828Z,10.37
2018-05-06T00:23:31.361Z,10.37
2018-05-06T00:24:30.121Z,10.37
2018-05-06T00:25:31.103Z,10.34
2018-05-06T00:26:30.039Z,10.31
2018-05-06T00:27:31.019Z,10.26
2018-05-06T00:28:30.113Z,10.28
2018-05-06T00:29:30.132Z,10.26
2018-05-06T00:30:30.106Z,10.26
2018-05-06T00:31:29.630Z,10.26
2018-05-06T00:32:30.586Z,10.28
2018-05-06T00:33:30.403Z,10.26
2018-05-06T00:34:30.340Z,10.26
2018-05-06T00:35:29.988Z,10.23
2018-05-06T00:36:29.705Z,10.20
2018-05-06T00:37:30.715Z,10.15
2018-05-06T00:38:30.454Z,10.10
2018-05-06T00:39:29.973Z,10.05
2018-05-06T00:40:30.190Z,10.04
2018-05-06T00:41:29.753Z,9.99
2018-05-06T00:42:30.400Z,9.97
2018-05-06T00:43:30.412Z,9.94
2018-05-06T00:44:30.374Z,9.95
2018-05-06T00:45:30.041Z,9.94
2018-05-06T00:46:29.856Z,9.94
2018-05-06T00:47:51.386Z,9.92
2018-05-06T00:48:51.883Z,9.92
2018-05-06T00:49:51.645Z,9.91
2018-05-06T00:50:51.382Z,9.91
2018-05-06T00:51:52.245Z,9.91
2018-05-06T00:52:51.830Z,9.91
2018-05-06T00:53:51.940Z,9.91
2018-05-06T00:54:51.993Z,9.92
2018-05-06T00:55:51.877Z,9.95
2018-05-06T00:56:51.426Z,9.94
2018-05-06T00:57:52.189Z,9.95
2018-05-06T00:58:51.681Z,9.98
2018-05-06T00:59:51.487Z,9.98
2018-05-06T01:00:51.323Z,9.99
2018-05-06T01:02:12.410Z,9.98
2018-05-06T01:03:12.998Z,9.98
2018-05-06T01:04:12.620Z,9.99
2018-05-06T01:05:13.898Z,9.97
2018-05-06T01:06:32.734Z,9.95
2018-05-06T01:07:33.865Z,9.91
2018-05-06T01:08:34.028Z,9.86
2018-05-06T01:09:56.494Z,9.80
2018-05-06T01:10:57.222Z,9.74
2018-05-06T01:12:17.294Z,9.66
2018-05-06T01:13:18.596Z,9.62
2018-05-06T01:14:18.430Z,9.59
2018-05-06T01:15:18.310Z,9.55
2018-05-06T01:16:17.893Z,9.51
2018-05-06T01:17:17.799Z,9.48
2018-05-06T01:18:38.637Z,9.44
2018-05-06T01:19:38.741Z,9.41
2018-05-06T01:20:38.142Z,9.37
2018-05-06T01:21:39.182Z,9.36
2018-05-06T01:22:38.666Z,9.34
2018-05-06T01:23:38.850Z,9.32
2018-05-06T01:24:58.591Z,9.36
2018-05-06T01:25:59.748Z,9.36
2018-05-06T01:26:59.595Z,9.36
2018-05-06T01:27:59.465Z,9.37
2018-05-06T01:28:59.314Z,9.37
2018-05-06T01:29:59.250Z,9.37
2018-05-06T01:30:58.951Z,9.34
2018-05-06T01:31:59.889Z,9.32
2018-05-06T01:32:59.662Z,9.36
2018-05-06T01:33:59.807Z,9.37
2018-05-06T01:34:59.726Z,9.37
2018-05-06T01:35:59.350Z,9.41
2018-05-06T01:36:58.801Z,9.41
2018-05-06T01:37:59.849Z,9.41
2018-05-06T01:38:59.915Z,9.41
2018-05-06T01:39:59.656Z,9.39
2018-05-06T01:40:59.513Z,9.40
2018-05-06T01:41:59.216Z,9.39
2018-05-06T01:42:59.158Z,9.36
2018-05-06T01:44:19.450Z,9.36
2018-05-06T01:45:40.590Z,9.31
2018-05-06T01:47:01.421Z,9.25
2018-05-06T01:48:02.280Z,9.22
2018-05-06T01:49:02.044Z,9.19
2018-05-06T01:50:01.942Z,9.11
2018-05-06T01:51:02.050Z,9.06
2018-05-06T01:52:01.999Z,8.99
2018-05-06T01:53:01.522Z,8.91
2018-05-06T01:54:22.329Z,8.85
2018-05-06T01:55:23.252Z,8.81
2018-05-06T01:56:23.142Z,8.78
2018-05-06T01:58:03.649Z,8.73
2018-05-06T01:59:04.441Z,8.67
2018-05-06T02:00:04.052Z,8.67
2018-05-06T02:01:03.780Z,8.66
2018-05-06T02:02:04.532Z,8.66
2018-05-06T02:03:04.154Z,8.66
2018-05-06T02:04:24.358Z,8.63
2018-05-06T02:05:45.627Z,8.60
2018-05-06T02:06:46.236Z,8.56
2018-05-06T02:07:45.858Z,8.53
2018-05-06T02:08:45.441Z,8.51
2018-05-06T02:09:46.103Z,8.49
2018-05-06T02:10:46.072Z,8.44
2018-05-06T02:11:45.752Z,8.45
2018-05-06T02:12:46.623Z,8.42
2018-05-06T02:13:46.397Z,8.42
2018-05-06T02:14:46.350Z,8.38
2018-05-06T02:15:46.287Z,8.37
2018-05-06T02:16:46.186Z,8.36
2018-05-06T02:18:06.430Z,8.34
2018-05-06T02:19:06.926Z,8.33
2018-05-06T02:20:06.417Z,8.30
2018-05-06T02:22:08.210Z,8.28
2018-05-06T02:23:29.407Z,8.28
2018-05-06T02:24:30.373Z,8.27
2018-05-06T02:25:30.947Z,8.24
2018-05-06T02:26:29.511Z,8.24
2018-05-06T02:27:29.173Z,8.23
2018-05-06T02:28:29.658Z,8.20
2018-05-06T02:29:29.455Z,8.19
2018-05-06T02:30:30.349Z,8.18
2018-05-06T02:31:30.281Z,8.18
2018-05-06T02:32:29.826Z,8.15
2018-05-06T02:33:49.835Z,8.15
2018-05-06T02:34:50.719Z,8.12
2018-05-06T02:35:50.149Z,8.10
2018-05-06T02:36:50.927Z,8.09
2018-05-06T02:37:50.784Z,8.09
2018-05-06T02:38:50.164Z,8.09
2018-05-06T02:39:50.672Z,8.06
2018-05-06T02:40:50.095Z,8.05
2018-05-06T02:41:51.167Z,8.01
2018-05-06T02:42:50.653Z,7.98
2018-05-06T02:43:50.677Z,7.97
2018-05-06T02:44:50.609Z,7.95
2018-05-06T02:45:50.095Z,7.94
2018-05-06T02:46:50.624Z,7.93
2018-05-06T02:47:50.864Z,7.91
2018-05-06T02:48:50.481Z,7.88
2018-05-06T02:49:50.482Z,7.85
2018-05-06T02:50:50.107Z,7.82
2018-05-06T02:51:50.566Z,7.87
2018-05-06T02:52:49.957Z,7.88
2018-05-06T02:53:50.433Z,7.90
2018-05-06T02:54:50.340Z,7.93
2018-05-06T02:56:51.182Z,7.87
2018-05-06T02:57:51.687Z,7.90
2018-05-06T02:58:51.240Z,7.88
2018-05-06T02:59:52.096Z,7.83
2018-05-06T03:00:51.639Z,7.80
2018-05-06T03:01:51.131Z,7.77
2018-05-06T03:02:51.536Z,7.73
2018-05-06T03:03:51.134Z,7.75
2018-05-06T03:04:51.630Z,7.75
2018-05-06T03:05:51.252Z,7.75
2018-05-06T03:06:51.743Z,7.73
2018-05-06T03:07:51.472Z,7.73
2018-05-06T03:09:11.801Z,7.69
2018-05-06T03:10:12.661Z,7.67
2018-05-06T03:11:12.668Z,7.67
2018-05-06T03:12:12.599Z,7.66
2018-05-06T03:13:12.506Z,7.63
2018-05-06T03:14:33.551Z,7.63
2018-05-06T03:15:33.318Z,7.63
2018-05-06T03:16:33.484Z,7.60
2018-05-06T03:17:33.476Z,7.58
2018-05-06T03:18:33.358Z,7.58
2018-05-06T03:19:33.476Z,7.58
2018-05-06T03:20:33.353Z,7.60
2018-05-06T03:21:33.092Z,7.63
2018-05-06T03:22:33.673Z,7.73
2018-05-06T03:23:33.887Z,7.76
2018-05-06T03:24:34.325Z,7.76
2018-05-06T03:25:33.489Z,7.76
2018-05-06T03:26:33.637Z,7.76
2018-05-06T03:27:33.369Z,7.77
2018-05-06T03:28:33.580Z,7.75
2018-05-06T03:29:54.417Z,7.75
2018-05-06T03:30:55.450Z,7.75
2018-05-06T03:31:54.873Z,7.76
2018-05-06T03:32:54.473Z,7.76
2018-05-06T03:34:15.588Z,7.75
2018-05-06T03:35:15.979Z,7.77
2018-05-06T03:36:15.954Z,7.82
2018-05-06T03:37:15.670Z,7.83
2018-05-06T03:38:16.255Z,7.80
2018-05-06T03:39:16.225Z,7.82
2018-05-06T03:40:15.701Z,7.83
2018-05-06T03:41:16.361Z,7.85
2018-05-06T03:42:16.336Z,7.88
2018-05-06T03:43:15.901Z,7.88
2018-05-06T03:44:16.932Z,7.87
2018-05-06T03:45:15.698Z,7.90
2018-05-06T03:46:16.748Z,7.90
2018-05-06T03:47:16.265Z,7.93
2018-05-06T03:48:15.794Z,7.93
2018-05-06T03:49:16.507Z,7.94
2018-05-06T03:50:16.040Z,7.95
2018-05-06T03:51:15.712Z,7.93
2018-05-06T03:52:16.364Z,7.93
2018-05-06T03:53:56.860Z,7.91
2018-05-06T03:54:57.382Z,7.91
2018-05-06T03:56:07.041Z,7.91
2018-05-06T03:56:57.857Z,7.88
2018-05-06T03:57:57.420Z,7.90
2018-05-06T03:58:56.946Z,7.90
2018-05-06T03:59:57.642Z,7.90
2018-05-06T04:00:57.754Z,7.93
2018-05-06T04:01:57.759Z,7.88
2018-05-06T04:02:57.353Z,7.93
2018-05-06T04:03:57.081Z,7.90
2018-05-06T04:05:20.994Z,7.88
2018-05-06T04:06:20.578Z,7.91
2018-05-06T04:07:21.120Z,7.91
2018-05-06T04:08:41.191Z,7.88
2018-05-06T04:09:42.440Z,7.90
2018-05-06T04:10:42.271Z,7.88
2018-05-06T04:11:41.906Z,7.83
2018-05-06T04:12:58.196Z,7.82
2018-05-06T04:13:59.104Z,7.80
2018-05-06T04:14:58.730Z,7.76
2018-05-06T04:15:58.712Z,7.75
2018-05-06T04:16:58.265Z,7.72
2018-05-06T04:18:19.621Z,7.70
2018-05-06T04:19:20.609Z,7.73
2018-05-06T04:20:20.201Z,7.77
2018-05-06T04:21:20.008Z,7.80
2018-05-06T04:22:19.806Z,7.83
2018-05-06T04:23:20.540Z,7.87
2018-05-06T04:24:20.568Z,7.88
2018-05-06T04:25:20.179Z,7.90
2018-05-06T04:26:19.902Z,7.94
2018-05-06T04:27:20.906Z,7.94
2018-05-06T04:28:20.868Z,7.95
2018-05-06T04:29:19.630Z,7.95
2018-05-06T04:30:20.617Z,7.98
2018-05-06T04:31:20.434Z,8.01
2018-05-06T04:32:20.558Z,8.08
2018-05-06T04:33:20.566Z,8.12
2018-05-06T04:34:20.601Z,8.15
2018-05-06T04:35:41.511Z,8.27
2018-05-06T04:36:41.361Z,8.38
2018-05-06T04:37:42.456Z,8.53
2018-05-06T04:38:41.672Z,8.61
2018-05-06T04:39:41.370Z,8.69
2018-05-06T04:40:42.015Z,8.71
2018-05-06T04:41:41.697Z,8.74
2018-05-06T04:42:41.363Z,8.79
2018-05-06T04:43:42.069Z,8.85
2018-05-06T04:44:42.007Z,9.02
2018-05-06T04:45:41.862Z,9.11
2018-05-06T04:46:42.174Z,9.11
2018-05-06T04:47:41.872Z,9.03
2018-05-06T04:48:42.061Z,9.00
2018-05-06T04:49:41.733Z,8.99
2018-05-06T04:51:22.524Z,8.95
2018-05-06T04:52:22.803Z,8.92
2018-05-06T04:53:22.909Z,8.97
2018-05-06T04:54:43.407Z,8.99
2018-05-06T04:55:44.294Z,8.99
2018-05-06T04:56:44.874Z,9.02
2018-05-06T04:57:43.474Z,9.08
2018-05-06T04:58:44.196Z,9.11
2018-05-06T04:59:43.780Z,9.13
2018-05-06T05:00:45.310Z,9.13
2018-05-06T05:01:44.354Z,9.14
2018-05-06T05:02:44.564Z,9.11
2018-05-06T05:04:04.682Z,9.14
2018-05-06T05:05:05.853Z,9.11
2018-05-06T05:06:05.656Z,9.14
2018-05-06T05:07:06.732Z,9.14
2018-05-06T05:08:05.332Z,9.16
2018-05-06T05:09:05.258Z,9.21
2018-05-06T05:10:04.855Z,9.22
2018-05-06T05:11:05.945Z,9.26
2018-05-06T05:12:05.060Z,9.32
2018-05-06T05:13:04.755Z,9.39
2018-05-06T05:14:05.870Z,9.39
2018-05-06T05:15:05.788Z,9.39
2018-05-06T05:16:05.445Z,9.41
2018-05-06T05:17:05.485Z,9.48
2018-05-06T05:18:05.403Z,9.58
2018-05-06T05:19:05.608Z,9.56
2018-05-06T05:20:05.254Z,9.56
2018-05-06T05:21:05.057Z,9.61
2018-05-06T05:22:04.853Z,9.62
2018-05-06T05:23:06.025Z,9.68
2018-05-06T05:24:05.168Z,9.84
2018-05-06T05:25:05.288Z,10.28
2018-05-06T05:26:05.015Z,10.90
2018-05-06T05:27:05.097Z,11.50
2018-05-06T05:28:05.177Z,11.99
2018-05-06T05:29:05.180Z,12.49
2018-05-06T05:30:05.322Z,12.95
2018-05-06T05:31:05.471Z,13.42
2018-05-06T05:32:05.564Z,13.81
2018-05-06T05:33:05.589Z,14.18
2018-05-06T05:34:05.842Z,14.58
2018-05-06T05:35:05.655Z,14.86
2018-05-06T05:36:05.521Z,15.14
2018-05-06T05:37:05.204Z,15.40
2018-05-06T05:38:04.975Z,15.70
2018-05-06T05:39:05.066Z,15.95
2018-05-06T05:40:04.753Z,16.24
2018-05-06T05:41:05.898Z,16.49
2018-05-06T05:42:46.745Z,16.79
2018-05-06T05:43:46.810Z,16.94
2018-05-06T05:44:46.595Z,17.16
2018-05-06T05:45:47.182Z,17.23
2018-05-06T05:46:47.233Z,17.29
2018-05-06T05:47:46.925Z,17.44
2018-05-06T05:48:46.621Z,17.63
2018-05-06T05:49:47.289Z,17.87
2018-05-06T05:50:47.424Z,18.08
2018-05-06T05:52:08.682Z,18.33
2018-05-06T05:53:09.044Z,18.53
2018-05-06T05:54:09.017Z,18.66
2018-05-06T05:55:09.226Z,18.83
2018-05-06T05:56:29.575Z,18.99
2018-05-06T05:57:30.874Z,19.15
2018-05-06T05:58:50.576Z,19.29
2018-05-06T05:59:51.373Z,19.45
2018-05-06T06:00:51.429Z,19.52
2018-05-06T06:01:51.596Z,19.55
2018-05-06T06:02:51.436Z,19.36
2018-05-06T06:03:51.220Z,19.22
2018-05-06T06:04:51.888Z,19.30
2018-05-06T06:05:50.670Z,19.22
2018-05-06T06:06:51.604Z,19.30
2018-05-06T06:08:11.751Z,19.58
2018-05-06T06:09:12.942Z,19.63
2018-05-06T06:10:12.159Z,19.79
2018-05-06T06:11:13.019Z,20.07
2018-05-06T06:12:12.195Z,20.28
2018-05-06T06:13:12.321Z,20.29
2018-05-06T06:14:33.757Z,20.31
2018-05-06T06:15:34.056Z,20.21
2018-05-06T06:16:34.028Z,20.39
2018-05-06T06:17:35.143Z,20.41
2018-05-06T06:18:34.535Z,20.36
2018-05-06T06:19:33.943Z,20.56
2018-05-06T06:20:34.233Z,20.88
2018-05-06T06:21:34.969Z,21.05
2018-05-06T06:22:34.483Z,21.06
2018-05-06T06:23:33.812Z,21.18
2018-05-06T06:24:33.631Z,21.40
2018-05-06T06:25:33.623Z,21.48
2018-05-06T06:26:33.719Z,21.14
2018-05-06T06:27:33.720Z,20.87
2018-05-06T06:28:33.856Z,20.77
2018-05-06T06:29:54.660Z,21.05
2018-05-06T06:30:55.915Z,21.33
2018-05-06T06:31:54.762Z,21.46
2018-05-06T06:32:56.102Z,21.73
2018-05-06T06:33:55.341Z,21.75
2018-05-06T06:34:55.275Z,21.73
2018-05-06T06:35:55.459Z,21.61
2018-05-06T06:36:55.570Z,21.67
2018-05-06T06:37:55.814Z,21.61
2018-05-06T06:38:55.260Z,21.89
2018-05-06T06:39:55.144Z,22.11
2018-05-06T06:41:16.293Z,22.38
2018-05-06T06:42:57.613Z,22.23
2018-05-06T06:43:57.521Z,22.32
2018-05-06T06:44:57.630Z,22.22
2018-05-06T06:46:17.934Z,22.28
2018-05-06T06:47:18.768Z,22.36
2018-05-06T06:48:20.550Z,22.48
2018-05-06T06:49:18.799Z,22.44
2018-05-06T06:50:18.642Z,22.48
2018-05-06T06:51:39.420Z,22.25
2018-05-06T06:52:40.273Z,22.10
2018-05-06T06:53:40.160Z,22.25
2018-05-06T06:54:39.883Z,22.14
2018-05-06T06:55:39.760Z,21.89
2018-05-06T06:57:00.440Z,22.25
2018-05-06T06:58:21.636Z,22.45
2018-05-06T06:59:21.537Z,22.73
2018-05-06T07:00:21.786Z,23.21
2018-05-06T07:01:21.681Z,23.61
2018-05-06T07:03:02.966Z,23.71
2018-05-06T07:04:04.934Z,23.62
2018-05-06T07:05:03.860Z,23.54
2018-05-06T07:06:04.174Z,23.61
2018-05-06T07:07:04.767Z,23.43
2018-05-06T07:08:03.378Z,23.25
2018-05-06T07:09:03.387Z,23.56
2018-05-06T07:10:03.702Z,23.91
2018-05-06T07:11:03.807Z,24.20
2018-05-06T07:12:03.698Z,24.39
2018-05-06T07:13:03.812Z,24.28
2018-05-06T07:14:03.767Z,24.35
2018-05-06T07:15:04.137Z,24.29
2018-05-06T07:16:03.032Z,23.91
2018-05-06T07:17:05.275Z,23.74
2018-05-06T07:18:03.400Z,23.78
2018-05-06T07:19:03.662Z,23.83
2018-05-06T07:20:03.789Z,23.95
2018-05-06T07:21:04.057Z,24.17
2018-05-06T07:22:03.427Z,24.47
2018-05-06T07:23:23.722Z,24.85
2018-05-06T07:24:24.628Z,25.07
2018-05-06T07:25:24.465Z,25.33
2018-05-06T07:26:24.190Z,25.81
2018-05-06T07:27:44.741Z,26.00
2018-05-06T07:28:45.976Z,26.21
2018-05-06T07:29:44.896Z,26.05
2018-05-06T07:30:45.162Z,25.72
2018-05-06T07:31:44.960Z,25.40
2018-05-06T07:32:45.029Z,25.55
2018-05-06T07:33:44.890Z,25.87
2018-05-06T07:34:46.138Z,25.96
2018-05-06T07:36:27.155Z,26.25
2018-05-06T07:37:27.392Z,26.37
2018-05-06T07:38:27.746Z,26.37
2018-05-06T07:39:28.000Z,26.47
2018-05-06T07:40:27.892Z,26.37
2018-05-06T07:41:26.984Z,26.40
2018-05-06T07:42:27.181Z,26.21
2018-05-06T07:43:27.480Z,26.09
2018-05-06T07:44:28.292Z,26.29
2018-05-06T07:45:27.355Z,26.47
2018-05-06T07:46:27.763Z,26.58
2018-05-06T07:47:27.892Z,26.33
2018-05-06T07:48:48.853Z,26.18
2018-05-06T07:49:48.863Z,26.48
2018-05-06T07:50:49.203Z,26.62
2018-05-06T07:51:49.007Z,26.56
2018-05-06T07:52:49.305Z,26.59
2018-05-06T07:53:49.127Z,26.65
2018-05-06T07:54:48.910Z,26.75
2018-05-06T07:55:49.225Z,26.68
2018-05-06T07:56:49.142Z,26.41
2018-05-06T07:57:49.491Z,26.60
2018-05-06T07:58:49.431Z,26.85
2018-05-06T07:59:49.423Z,27.03
2018-05-06T08:00:49.222Z,27.25
2018-05-06T08:02:10.054Z,27.26
2018-05-06T08:03:11.488Z,26.97
2018-05-06T08:04:10.794Z,26.77
2018-05-06T08:05:10.718Z,26.71
2018-05-06T08:06:32.596Z,27.25
2018-05-06T08:07:32.450Z,27.68
2018-05-06T08:08:32.651Z,28.12
2018-05-06T08:09:32.403Z,27.95
2018-05-06T08:10:32.684Z,27.64
2018-05-06T08:11:32.447Z,27.27
2018-05-06T08:12:32.617Z,26.66
2018-05-06T08:13:31.638Z,26.95
2018-05-06T08:14:32.965Z,27.00
2018-05-06T08:15:31.800Z,27.22
2018-05-06T08:16:32.171Z,27.14
2018-05-06T08:17:32.534Z,27.30
2018-05-06T08:18:32.392Z,27.48
2018-05-06T08:20:35.529Z,27.75
2018-05-06T08:21:35.600Z,27.52
2018-05-06T08:22:36.047Z,27.48
2018-05-06T08:23:57.233Z,27.80
2018-05-06T08:24:57.004Z,27.92
2018-05-06T08:26:18.458Z,28.27
2018-05-06T08:27:19.249Z,28.64
2018-05-06T08:28:19.207Z,28.86
2018-05-06T08:29:19.150Z,29.29
2018-05-06T08:30:19.318Z,29.78
2018-05-06T08:31:19.501Z,29.98
2018-05-06T08:32:19.662Z,30.03
2018-05-06T08:33:18.624Z,29.86
2018-05-06T08:34:18.491Z,29.75
2018-05-06T08:35:40.786Z,29.36
2018-05-06T08:36:41.060Z,28.84
2018-05-06T08:37:41.017Z,28.78
2018-05-06T08:38:41.418Z,29.07
2018-05-06T08:39:41.205Z,29.22
2018-05-06T08:40:41.601Z,29.53
2018-05-06T08:41:40.795Z,29.57
2018-05-06T08:42:41.022Z,29.49
2018-05-06T08:43:41.280Z,29.35
2018-05-06T08:44:41.090Z,28.82
2018-05-06T08:45:41.087Z,28.56
2018-05-06T08:46:41.386Z,28.26
2018-05-06T08:47:40.251Z,28.59
2018-05-06T08:48:41.222Z,28.91
2018-05-06T08:49:40.726Z,29.27
2018-05-06T08:50:40.647Z,29.29
2018-05-06T08:51:40.831Z,29.42
2018-05-06T08:52:40.871Z,29.12
2018-05-06T08:53:41.742Z,29.13
2018-05-06T08:54:41.633Z,29.13
2018-05-06T08:55:41.113Z,28.30
2018-05-06T08:56:42.081Z,28.27
2018-05-06T08:57:42.035Z,28.17
2018-05-06T08:58:40.935Z,28.11
2018-05-06T08:59:41.255Z,28.14
2018-05-06T09:00:40.740Z,28.20
2018-05-06T09:01:41.065Z,28.15
2018-05-06T09:02:41.678Z,28.49
2018-05-06T09:03:40.951Z,28.27
2018-05-06T09:04:41.272Z,28.30
2018-05-06T09:05:41.202Z,28.52
2018-05-06T09:06:42.568Z,28.82
2018-05-06T09:08:22.812Z,28.88
2018-05-06T09:09:23.923Z,28.86
2018-05-06T09:10:24.193Z,28.35
2018-05-06T09:11:23.400Z,28.42
2018-05-06T09:12:23.291Z,28.35
2018-05-06T09:13:23.389Z,28.51
2018-05-06T09:14:23.339Z,28.56
2018-05-06T09:15:23.877Z,28.63
2018-05-06T09:16:23.538Z,28.85
2018-05-06T09:17:45.514Z,29.29
2018-05-06T09:18:45.718Z,29.73
2018-05-06T09:19:48.518Z,30.12
2018-05-06T09:20:45.528Z,30.24
2018-05-06T09:22:05.918Z,29.79
2018-05-06T09:23:06.817Z,29.60
2018-05-06T09:24:28.463Z,29.38
2018-05-06T09:25:28.475Z,29.36
2018-05-06T09:26:28.653Z,29.50
2018-05-06T09:27:49.044Z,30.12
2018-05-06T09:29:30.581Z,30.24
2018-05-06T09:30:31.779Z,29.82
2018-05-06T09:31:32.150Z,29.47
2018-05-06T09:32:31.271Z,29.73
2018-05-06T09:33:32.089Z,30.00
2018-05-06T09:34:31.367Z,29.95
2018-05-06T09:35:32.214Z,29.78
2018-05-06T09:36:31.121Z,30.03
2018-05-06T09:37:31.359Z,30.23
2018-05-06T09:38:33.063Z,30.43
2018-05-06T09:39:31.635Z,30.75
2018-05-06T09:40:31.067Z,30.75
2018-05-06T09:41:51.865Z,30.30
2018-05-06T09:42:52.220Z,30.24
2018-05-06T09:43:52.443Z,30.72
2018-05-06T09:44:52.817Z,30.46
2018-05-06T09:45:53.020Z,30.50
2018-05-06T09:46:52.420Z,30.57
2018-05-06T09:47:52.779Z,30.83
2018-05-06T09:48:52.773Z,31.22
2018-05-06T09:49:52.670Z,31.52
2018-05-06T09:50:52.942Z,31.37
2018-05-06T09:51:52.507Z,31.17
2018-05-06T09:52:52.517Z,31.36
2018-05-06T09:53:52.805Z,31.51
2018-05-06T09:54:52.674Z,31.94
2018-05-06T09:55:53.345Z,32.29
2018-05-06T09:56:52.276Z,32.23
2018-05-06T09:57:52.818Z,32.15
2018-05-06T09:58:52.736Z,32.04
2018-05-06T09:59:52.905Z,31.97
2018-05-06T10:00:52.660Z,31.92
2018-05-06T10:01:52.915Z,31.80
2018-05-06T10:02:51.967Z,32.01
2018-05-06T10:03:51.960Z,32.08
2018-05-06T10:04:51.789Z,31.94
2018-05-06T10:05:52.167Z,32.03
2018-05-06T10:06:52.279Z,31.74
2018-05-06T10:07:52.775Z,32.11
2018-05-06T10:08:51.859Z,31.89
2018-05-06T10:09:52.932Z,31.49
2018-05-06T10:10:52.751Z,31.44
2018-05-06T10:12:12.978Z,31.81
2018-05-06T10:13:13.883Z,31.92
2018-05-06T10:14:13.295Z,32.18
2018-05-06T10:15:13.173Z,32.48
2018-05-06T10:16:13.100Z,32.73
2018-05-06T10:17:33.864Z,32.59
2018-05-06T10:18:34.937Z,32.78
2018-05-06T10:19:33.888Z,32.37
2018-05-06T10:20:34.009Z,32.33
2018-05-06T10:21:34.233Z,32.03
2018-05-06T10:22:34.256Z,32.22
2018-05-06T10:23:56.973Z,32.53
2018-05-06T10:24:56.939Z,32.96
2018-05-06T10:25:57.301Z,32.70
2018-05-06T10:26:57.627Z,32.80
2018-05-06T10:27:59.093Z,33.11
2018-05-06T10:28:58.149Z,33.49
2018-05-06T10:29:57.439Z,33.92
2018-05-06T10:31:18.211Z,34.25
2018-05-06T10:32:41.021Z,34.32
2018-05-06T10:33:41.236Z,34.14
2018-05-06T10:34:40.116Z,33.79
2018-05-06T10:35:40.117Z,33.47
2018-05-06T10:36:40.183Z,33.62
2018-05-06T10:37:40.733Z,33.50
2018-05-06T10:38:40.724Z,33.02
2018-05-06T10:39:40.984Z,32.93
2018-05-06T10:40:41.176Z,33.05
2018-05-06T10:41:41.053Z,32.90
2018-05-06T10:42:41.409Z,32.96
2018-05-06T10:43:41.343Z,33.22
2018-05-06T10:44:42.096Z,33.59
2018-05-06T10:45:40.901Z,33.45
2018-05-06T10:46:41.201Z,33.04
2018-05-06T10:47:40.403Z,32.59
2018-05-06T10:48:40.785Z,31.78
2018-05-06T10:49:41.169Z,31.21
2018-05-06T10:50:40.687Z,31.36
2018-05-06T10:51:40.707Z,31.85
2018-05-06T10:52:40.771Z,31.52
2018-05-06T10:53:40.667Z,31.51
2018-05-06T10:55:45.091Z,31.74
2018-05-06T10:56:44.989Z,31.87
2018-05-06T10:57:45.824Z,31.70
2018-05-06T10:59:07.366Z,31.74
2018-05-06T11:00:07.795Z,31.96
2018-05-06T11:01:07.174Z,32.41
2018-05-06T11:02:07.418Z,32.33
2018-05-06T11:03:07.664Z,32.15
2018-05-06T11:04:07.970Z,32.03
2018-05-06T11:05:28.042Z,32.52
2018-05-06T11:06:28.946Z,32.82
2018-05-06T11:07:28.791Z,32.86
2018-05-06T11:08:50.331Z,32.43
2018-05-06T11:09:50.471Z,32.77
2018-05-06T11:10:49.375Z,33.05
2018-05-06T11:11:50.600Z,33.02
2018-05-06T11:13:31.076Z,33.11
2018-05-06T11:14:51.989Z,32.73
2018-05-06T11:15:52.075Z,33.01
2018-05-06T11:16:52.044Z,33.64
2018-05-06T11:17:52.950Z,34.05
2018-05-06T11:18:52.370Z,33.92
2018-05-06T11:19:52.451Z,33.36
2018-05-06T11:20:52.775Z,33.09
2018-05-06T11:21:52.224Z,33.04
2018-05-06T11:22:52.396Z,33.42
2018-05-06T11:23:52.225Z,33.65
2018-05-06T11:24:52.419Z,34.02
2018-05-06T11:25:52.554Z,34.11
2018-05-06T11:26:52.752Z,34.08
2018-05-06T11:27:51.597Z,33.86
2018-05-06T11:28:52.181Z,33.73
2018-05-06T11:29:52.555Z,33.42
2018-05-06T11:30:53.921Z,33.31
2018-05-06T11:31:52.875Z,33.23
2018-05-06T11:32:51.751Z,33.24
2018-05-06T11:33:51.610Z,33.24
2018-05-06T11:34:52.460Z,33.09
2018-05-06T11:35:52.489Z,33.36
2018-05-06T11:36:52.334Z,33.69
2018-05-06T11:37:52.920Z,33.52
2018-05-06T11:38:51.786Z,33.50
2018-05-06T11:39:51.744Z,33.67
2018-05-06T11:40:52.017Z,33.32
2018-05-06T11:41:57.498Z,33.19
2018-05-06T11:42:52.204Z,33.36
2018-05-06T11:43:52.324Z,33.79
2018-05-06T11:45:21.816Z,34.38
2018-05-06T11:46:25.257Z,34.80
2018-05-06T11:47:15.154Z,34.85
2018-05-06T11:48:15.499Z,34.86
2018-05-06T11:49:14.871Z,35.04
2018-05-06T11:50:15.368Z,34.81
2018-05-06T11:51:14.799Z,34.42
2018-05-06T11:52:14.899Z,34.50
2018-05-06T11:53:15.252Z,34.51
2018-05-06T11:54:14.309Z,34.86
2018-05-06T11:55:36.495Z,34.66
2018-05-06T11:56:37.922Z,34.35
2018-05-06T11:57:37.493Z,33.62
2018-05-06T11:58:36.660Z,33.45
2018-05-06T12:00:18.870Z,33.53
2018-05-06T12:01:19.881Z,33.45
2018-05-06T12:02:39.920Z,33.92
2018-05-06T12:03:40.486Z,33.84
2018-05-06T12:04:40.893Z,33.34
2018-05-06T12:05:40.364Z,33.11
2018-05-06T12:06:40.471Z,33.19
2018-05-06T12:07:41.191Z,33.36
2018-05-06T12:08:41.286Z,33.27
2018-05-06T12:09:41.692Z,33.08
2018-05-06T12:11:02.940Z,32.96
2018-05-06T12:12:02.929Z,32.63
2018-05-06T12:13:03.384Z,32.82
2018-05-06T12:14:03.593Z,33.01
2018-05-06T12:15:03.922Z,33.28
2018-05-06T12:16:03.902Z,33.49
2018-05-06T12:17:03.521Z,33.46
2018-05-06T12:18:03.816Z,33.27
2018-05-06T12:19:03.442Z,33.28
2018-05-06T12:20:04.018Z,33.14
2018-05-06T12:21:24.874Z,32.67
2018-05-06T12:22:25.194Z,32.74
2018-05-06T12:23:26.538Z,32.96
2018-05-06T12:24:25.560Z,33.09
2018-05-06T12:25:24.979Z,33.31
2018-05-06T12:26:47.370Z,33.84
2018-05-06T12:27:47.950Z,33.45
2018-05-06T12:28:47.407Z,33.20
2018-05-06T12:29:47.740Z,33.14
2018-05-06T12:32:33.125Z,33.42
2018-05-06T12:33:33.595Z,33.46
2018-05-06T12:34:34.093Z,33.61
2018-05-06T12:35:33.767Z,33.27
2018-05-06T12:36:33.550Z,33.32
2018-05-06T12:37:33.617Z,32.86
2018-05-06T12:38:34.082Z,32.68
2018-05-06T12:39:55.577Z,32.64
2018-05-06T12:40:55.115Z,32.80
2018-05-06T12:42:17.607Z,32.07
2018-05-06T12:43:18.178Z,32.08
2018-05-06T12:44:18.393Z,32.40
2018-05-06T12:45:18.420Z,32.52
2018-05-06T12:46:18.148Z,32.38
2018-05-06T12:47:18.601Z,32.63
2018-05-06T12:48:17.801Z,32.90
2018-05-06T12:49:38.904Z,33.01
2018-05-06T12:50:39.018Z,32.73
2018-05-06T12:51:39.909Z,32.15
2018-05-06T12:52:39.306Z,31.81
2018-05-06T12:53:39.461Z,32.03
2018-05-06T12:54:40.427Z,32.12
2018-05-06T12:55:39.967Z,32.48
2018-05-06T12:56:39.799Z,32.38
2018-05-06T12:58:00.717Z,31.62
2018-05-06T12:59:01.895Z,31.10
2018-05-06T13:00:23.113Z,30.88
2018-05-06T13:01:23.800Z,31.02
2018-05-06T13:02:23.305Z,31.14
2018-05-06T13:03:23.368Z,31.43
2018-05-06T13:04:23.528Z,31.84
2018-05-06T13:05:24.726Z,31.96
2018-05-06T13:06:24.291Z,31.92
2018-05-06T13:07:23.624Z,31.80
2018-05-06T13:08:23.487Z,31.56
2018-05-06T13:09:24.278Z,31.28
2018-05-06T13:10:23.752Z,31.14
2018-05-06T13:11:22.863Z,31.34
2018-05-06T13:12:23.314Z,31.33
2018-05-06T13:13:23.205Z,31.14
2018-05-06T13:14:23.423Z,31.54
2018-05-06T13:16:02.880Z,31.69
2018-05-06T13:17:02.808Z,31.59
2018-05-06T13:18:24.216Z,31.73
2018-05-06T13:19:24.155Z,31.61
2018-05-06T13:20:45.500Z,31.46
2018-05-06T13:21:45.758Z,31.61
2018-05-06T13:22:46.803Z,31.44
2018-05-06T13:23:45.998Z,31.51
2018-05-06T13:24:45.855Z,31.64
2018-05-06T13:26:06.720Z,31.61
2018-05-06T13:27:08.349Z,31.77
2018-05-06T13:28:49.203Z,31.81
2018-05-06T13:30:30.849Z,31.74
2018-05-06T13:31:30.876Z,31.77
2018-05-06T13:32:30.785Z,31.47
2018-05-06T13:33:30.788Z,31.28
2018-05-06T13:34:30.685Z,31.37
2018-05-06T13:35:30.798Z,31.34
2018-05-06T13:36:31.053Z,31.27
2018-05-06T13:37:32.572Z,31.05
2018-05-06T13:38:53.102Z,30.85
2018-05-06T13:39:53.660Z,30.92
2018-05-06T13:40:52.673Z,30.83
2018-05-06T13:41:53.001Z,31.00
2018-05-06T13:42:53.154Z,31.34
2018-05-06T13:43:53.264Z,30.91
2018-05-06T13:45:14.660Z,30.77